createdAt,value
2019-01-21T00:00:45.048Z,1.38
2019-01-21T00:03:31.273Z,1.30
2019-01-21T00:06:02.054Z,1.25
2019-01-21T00:08:32.505Z,1.16
2019-01-21T00:11:13.473Z,1.07
2019-01-21T00:13:48.676Z,1.01
2019-01-21T00:16:25.033Z,0.69
2019-01-21T00:18:57.787Z,1.03
2019-01-21T00:21:32.232Z,1.01
2019-01-21T00:24:06.040Z,0.86
2019-01-21T00:26:35.185Z,0.74
2019-01-21T00:29:15.020Z,0.58
2019-01-21T00:31:44.796Z,0.53
2019-01-21T00:34:20.942Z,0.50
2019-01-21T00:36:50.369Z,0.57
2019-01-21T00:39:19.227Z,0.66
2019-01-21T00:41:51.076Z,0.85
2019-01-21T00:44:20.247Z,0.95
2019-01-21T00:46:58.613Z,1.04
2019-01-21T00:49:29.631Z,1.08
2019-01-21T00:52:13.771Z,1.03
2019-01-21T00:54:45.811Z,1.00
2019-01-21T00:57:14.716Z,0.99
2019-01-21T00:59:47.148Z,1.09
2019-01-21T01:02:23.887Z,0.97
2019-01-21T01:05:11.106Z,0.67
2019-01-21T01:13:52.544Z,0.54
2019-01-21T01:16:24.442Z,0.52
2019-01-21T01:22:22.595Z,0.49
2019-01-21T01:25:01.700Z,0.52
2019-01-21T01:28:07.686Z,0.52
2019-01-21T01:34:03.576Z,0.56
2019-01-21T01:37:09.945Z,0.59
2019-01-21T01:43:26.522Z,0.46
2019-01-21T01:45:46.556Z,0.34
2019-01-21T01:48:53.057Z,0.28
2019-01-21T01:57:25.710Z,0.25
2019-01-21T02:00:18.737Z,0.30
2019-01-21T02:08:44.722Z,0.37
2019-01-21T02:11:14.767Z,0.33
2019-01-21T02:13:43.779Z,0.38
2019-01-21T02:16:31.749Z,0.39
2019-01-21T02:22:34.609Z,0.30
2019-01-21T02:31:23.228Z,0.56
2019-01-21T02:47:23.068Z,0.84
2019-01-21T02:49:27.240Z,0.84
2019-01-21T02:52:21.098Z,0.83
2019-01-21T02:57:37.249Z,0.84
2019-01-21T03:01:44.838Z,0.87
2019-01-21T03:03:52.906Z,0.82
2019-01-21T03:06:39.580Z,0.74
2019-01-21T03:09:16.750Z,0.38
2019-01-21T03:12:06.483Z,0.38
2019-01-21T10:28:34.946Z,8.34
2019-01-21T10:37:05.914Z,9.04
2019-01-21T10:48:53.779Z,8.29
2019-01-21T10:54:43.771Z,9.70
2019-01-21T10:57:38.603Z,9.51
2019-01-21T11:03:52.657Z,7.43
2019-01-21T11:09:56.571Z,7.93
2019-01-21T11:41:09.536Z,8.28
2019-01-21T11:50:13.194Z,8.93
2019-01-21T11:59:59.751Z,7.73
2019-01-21T12:02:48.215Z,8.45
2019-01-21T12:05:39.185Z,8.37
2019-01-21T12:08:17.071Z,8.00
2019-01-21T12:10:53.705Z,8.29
2019-01-21T12:13:54.323Z,8.15
2019-01-21T12:16:42.072Z,8.76
2019-01-21T12:22:31.871Z,8.80
2019-01-21T12:28:14.339Z,8.54
2019-01-21T12:42:53.758Z,8.33
2019-01-21T13:25:56.187Z,6.93
2019-01-21T13:32:06.854Z,6.83
2019-01-21T13:37:53.997Z,6.55
2019-01-21T13:40:41.948Z,6.80
2019-01-21T13:43:32.949Z,6.31
2019-01-21T13:46:44.368Z,6.13
2019-01-21T13:50:16.247Z,6.63
2019-01-21T13:56:03.834Z,6.92
2019-01-21T13:58:43.923Z,6.44
2019-01-21T14:06:00.687Z,6.10
2019-01-21T14:08:06.118Z,6.35
2019-01-21T14:11:27.968Z,5.68
2019-01-21T14:14:13.583Z,5.73
2019-01-21T14:17:20.787Z,6.45
2019-01-21T14:20:23.820Z,6.06
2019-01-21T14:29:18.958Z,6.20
2019-01-21T14:32:07.153Z,6.48
2019-01-21T14:35:05.888Z,6.19
2019-01-21T14:37:56.053Z,6.47
2019-01-21T14:46:24.808Z,5.48
2019-01-21T14:49:06.462Z,4.95
2019-01-21T14:51:57.293Z,4.61
2019-01-21T14:54:51.715Z,4.38
2019-01-21T14:57:58.391Z,4.68
2019-01-21T15:01:14.616Z,4.91
2019-01-21T15:07:41.018Z,4.81
2019-01-21T15:13:25.184Z,4.75
2019-01-21T15:16:29.304Z,4.55
2019-01-21T15:19:29.044Z,4.35
2019-01-21T15:22:43.940Z,4.10
2019-01-21T15:25:34.520Z,4.28
2019-01-21T15:28:28.466Z,4.20
2019-01-21T15:31:02.591Z,4.16
2019-01-21T15:33:57.974Z,4.06
2019-01-21T15:36:41.959Z,3.67
2019-01-21T15:39:42.538Z,3.71
2019-01-21T16:03:01.837Z,4.73
2019-01-21T16:06:09.264Z,4.68
2019-01-21T16:09:02.223Z,4.58
2019-01-21T16:33:36.104Z,4.18
2019-01-21T16:51:49.050Z,4.24
2019-01-21T16:54:22.508Z,4.18
2019-01-21T16:56:57.533Z,4.23
2019-01-21T16:59:30.618Z,4.16
2019-01-21T17:02:05.125Z,4.21
2019-01-21T17:08:00.778Z,4.35
2019-01-21T17:10:54.518Z,4.39
2019-01-21T17:13:54.262Z,4.40
2019-01-21T17:16:29.760Z,4.35
2019-01-21T17:19:11.623Z,4.35
2019-01-21T17:22:02.812Z,4.29
2019-01-21T17:24:44.729Z,4.28
2019-01-21T17:27:24.803Z,4.23
2019-01-21T17:30:09.713Z,3.79
2019-01-21T17:32:44.817Z,4.15
2019-01-21T17:35:20.476Z,4.17
2019-01-21T17:37:51.511Z,4.20
2019-01-21T17:40:40.234Z,4.08
2019-01-21T17:43:22.368Z,4.04
2019-01-21T17:46:28.399Z,3.96
2019-01-21T17:48:57.719Z,3.90
2019-01-21T17:51:43.301Z,3.97
2019-01-21T17:54:12.039Z,3.99
2019-01-21T17:59:51.061Z,4.06
2019-01-21T18:02:27.961Z,3.92
2019-01-21T18:04:57.593Z,3.75
2019-01-21T18:07:31.229Z,3.79
2019-01-21T18:10:06.238Z,3.80
2019-01-21T18:12:42.084Z,3.80
2019-01-21T19:20:29.190Z,2.48
2019-01-21T19:22:52.690Z,2.55
2019-01-21T19:25:48.768Z,2.57
2019-01-21T19:28:40.340Z,2.53
2019-01-21T19:31:28.794Z,2.48
2019-01-21T19:34:42.152Z,2.57
2019-01-21T19:43:19.471Z,2.58
2019-01-21T19:46:33.340Z,2.56
2019-01-21T21:49:31.741Z,1.81
2019-01-21T22:16:42.253Z,1.71
2019-01-21T22:19:48.279Z,1.58
